createdAt,value
2023-12-11T00:04:39.840Z,10.1
2023-12-11T00:09:39.862Z,10
2023-12-11T00:14:47.256Z,10.2
2023-12-11T00:20:39.812Z,10.3
2023-12-11T00:25:39.816Z,10.3
2023-12-11T00:30:47.121Z,10.2
2023-12-11T00:36:39.801Z,10.2
2023-12-11T00:41:39.756Z,10.1
2023-12-11T00:46:46.694Z,10.2
2023-12-11T00:51:47.148Z,10.1
2023-12-11T00:57:39.793Z,10.3
2023-12-11T01:13:39.793Z,10.4
2023-12-11T01:18:46.681Z,10.5
2023-12-11T01:23:47.310Z,10.1
2023-12-11T01:29:39.757Z,10.1
2023-12-11T01:34:39.856Z,10.2
2023-12-11T01:39:39.836Z,10.3
2023-12-11T01:44:47.395Z,10.4
2023-12-11T01:50:39.754Z,10.5
2023-12-11T01:55:39.768Z,10.5
2023-12-11T02:00:46.666Z,10.5
2023-12-11T02:06:39.813Z,10.5
2023-12-11T02:11:39.786Z,10.6
2023-12-11T02:16:47.297Z,10.4
2023-12-11T02:22:39.761Z,10.4
2023-12-11T02:27:47.156Z,10.3
2023-12-11T02:33:39.910Z,10.4
2023-12-11T02:38:46.582Z,10.5
2023-12-11T02:44:39.767Z,10.5
2023-12-11T02:49:39.782Z,10.4
2023-12-11T02:54:39.796Z,10.5
2023-12-11T02:59:46.577Z,10.5
2023-12-11T03:05:39.805Z,10.6
2023-12-11T03:10:39.788Z,10.4
2023-12-11T03:20:46.550Z,10.4
2023-12-11T03:26:39.748Z,10.3
2023-12-11T03:31:39.779Z,10.3
2023-12-11T03:36:47.113Z,10.5
2023-12-11T03:42:39.830Z,10.5
2023-12-11T03:47:39.822Z,10.3
2023-12-11T03:52:47.400Z,10.5
2023-12-11T03:58:39.778Z,10.6
2023-12-11T04:03:39.888Z,10.7
2023-12-11T04:08:46.527Z,10.4
2023-12-11T04:13:47.197Z,10.3
2023-12-11T04:19:39.873Z,10.4
2023-12-11T04:24:39.888Z,10.3
2023-12-11T04:29:46.735Z,10.3
2023-12-11T04:34:46.755Z,10.2
2023-12-11T04:39:46.864Z,10.3
2023-12-11T04:44:46.860Z,10.6
2023-12-11T04:50:39.910Z,10.5
2023-12-11T04:55:47.197Z,10.6
2023-12-11T05:01:39.906Z,10.4
2023-12-11T05:06:45.582Z,10.4
2023-12-11T05:11:46.979Z,10.5
2023-12-11T05:17:39.775Z,10.4
2023-12-11T05:22:46.550Z,10.3
2023-12-11T05:27:46.642Z,10.3
2023-12-11T05:32:47.236Z,10.4
2023-12-11T05:37:47.188Z,10.4
2023-12-11T05:43:39.782Z,10.5
2023-12-11T05:48:47.579Z,10.3
2023-12-11T05:54:39.875Z,10.4
2023-12-11T05:59:47.207Z,10.4
2023-12-11T06:04:47.247Z,10.6
2023-12-11T06:09:47.562Z,10.4
2023-12-11T06:15:39.820Z,10.4
2023-12-11T06:20:46.585Z,10.2
2023-12-11T06:25:47.526Z,10.4
2023-12-11T06:31:39.788Z,10.4
2023-12-11T06:36:47.101Z,10.4
2023-12-11T06:41:47.325Z,10.1
2023-12-11T06:47:39.769Z,10.2
2023-12-11T06:52:39.784Z,10.1
2023-12-11T06:57:40.090Z,10
2023-12-11T07:02:47.256Z,9.9
2023-12-11T07:08:39.771Z,10
2023-12-11T07:13:39.860Z,10
2023-12-11T07:18:40.074Z,9.9
2023-12-11T07:23:39.828Z,10
2023-12-11T07:28:46.985Z,9.9
2023-12-11T07:34:39.817Z,10
2023-12-11T07:39:39.823Z,10.1
2023-12-11T07:44:46.775Z,10
2023-12-11T07:49:47.452Z,10.2
2023-12-11T07:55:39.790Z,10.2
2023-12-11T08:00:46.730Z,10.4
2023-12-11T08:06:39.839Z,10.2
2023-12-11T08:11:46.559Z,10.3
2023-12-11T08:16:47.020Z,10.4
2023-12-11T08:22:39.782Z,10.3
2023-12-11T08:27:39.823Z,10.4
2023-12-11T08:32:39.849Z,10.5
2023-12-11T08:37:46.559Z,10.5
2023-12-11T08:42:46.662Z,10.4
2023-12-11T08:47:47.182Z,10.4
2023-12-11T08:53:39.804Z,10.3
2023-12-11T08:58:39.834Z,10.4
2023-12-11T09:03:46.881Z,10.4
2023-12-11T09:09:39.856Z,10.5
2023-12-11T09:14:46.995Z,10.5
2023-12-11T09:20:39.916Z,10.4
2023-12-11T09:25:47.435Z,10.5
2023-12-11T09:31:39.770Z,10.5
2023-12-11T09:36:39.839Z,10.6
2023-12-11T09:46:46.626Z,10.7
2023-12-11T09:51:47.135Z,10.7
2023-12-11T09:56:47.256Z,10.8
2023-12-11T10:01:47.458Z,10.8
2023-12-11T10:07:39.793Z,10.8
2023-12-11T10:12:39.917Z,11.1
2023-12-11T10:17:46.988Z,10.9
2023-12-11T10:23:39.777Z,11.1
2023-12-11T10:28:39.761Z,11.1
2023-12-11T10:33:39.972Z,11.1
2023-12-11T10:38:46.791Z,11.2
2023-12-11T10:48:47.398Z,11
2023-12-11T10:54:40.264Z,11.3
2023-12-11T11:10:39.793Z,11.2
2023-12-11T11:20:47.230Z,11.1
2023-12-11T11:31:39.857Z,11
2023-12-11T11:36:46.625Z,11.1
2023-12-11T11:47:39.867Z,11
2023-12-11T11:52:39.851Z,11
2023-12-11T11:57:47.176Z,10.9
2023-12-11T12:02:47.190Z,10.8
2023-12-11T12:07:47.217Z,10.7
2023-12-11T12:12:48.136Z,10.6
2023-12-11T12:18:39.900Z,10.6
2023-12-11T12:23:39.816Z,10.6
2023-12-11T12:28:39.837Z,10.7
2023-12-11T12:33:46.653Z,10.6
2023-12-11T12:38:46.968Z,10.8
2023-12-11T12:44:39.812Z,10.8
2023-12-11T12:49:39.983Z,10.8
2023-12-11T12:54:46.613Z,10.9
2023-12-11T12:59:46.925Z,10.9
2023-12-11T13:05:39.947Z,10.9
2023-12-11T13:10:39.819Z,10.8
2023-12-11T13:15:46.600Z,10.9
2023-12-11T13:20:46.720Z,11.1
2023-12-11T13:25:46.636Z,11.1
2023-12-11T13:30:47.310Z,11
2023-12-11T13:36:39.861Z,11
2023-12-11T13:41:47.032Z,11.1
2023-12-11T13:47:39.897Z,11
2023-12-11T13:52:39.906Z,10.8
2023-12-11T13:57:47.245Z,10.7
2023-12-11T14:03:39.857Z,10.5
2023-12-11T14:08:39.904Z,10.4
2023-12-11T14:13:46.613Z,10.3
2023-12-11T14:18:47.410Z,10.4
2023-12-11T14:24:42.330Z,10.3
2023-12-11T14:29:47.094Z,10.1
2023-12-11T14:40:39.901Z,9.9
2023-12-11T14:45:46.647Z,9.9
2023-12-11T14:51:39.867Z,10
2023-12-11T14:56:39.847Z,10
2023-12-11T15:01:47.387Z,10
2023-12-11T15:07:39.899Z,10.1
2023-12-11T15:12:39.895Z,10
2023-12-11T15:17:46.678Z,10
2023-12-11T15:23:39.841Z,9.9
2023-12-11T15:28:42.342Z,9.8
2023-12-11T15:33:46.697Z,9.8
2023-12-11T15:38:46.659Z,10
2023-12-11T15:44:39.813Z,9.8
2023-12-11T15:49:47.498Z,9.7
2023-12-11T15:54:47.440Z,9.5
2023-12-11T16:00:39.937Z,9.7
2023-12-11T16:05:46.604Z,9.7
2023-12-11T16:10:46.603Z,9.6
2023-12-11T16:16:41.387Z,9.7
2023-12-11T16:21:39.858Z,9.5
2023-12-11T16:26:46.609Z,9.7
2023-12-11T16:32:39.869Z,9.7
2023-12-11T16:37:46.605Z,9.6
2023-12-11T16:42:46.980Z,9.5
2023-12-11T16:53:39.834Z,9.7
2023-12-11T16:58:39.853Z,9.8
2023-12-11T17:03:47.527Z,9.7
2023-12-11T17:09:39.908Z,9.7
2023-12-11T17:14:46.609Z,9.6
2023-12-11T17:19:47.325Z,9.5
2023-12-11T17:24:47.442Z,9.4
2023-12-11T17:30:39.834Z,9.4
2023-12-11T17:35:46.888Z,9.3
2023-12-11T17:40:47.259Z,9.2
2023-12-11T17:46:39.885Z,9.2
2023-12-11T17:51:46.633Z,9.2
2023-12-11T17:56:47.213Z,9.3
2023-12-11T18:02:39.807Z,9.2
2023-12-11T18:07:39.935Z,9.1
2023-12-11T18:12:39.844Z,9
2023-12-11T18:17:46.722Z,9.2
2023-12-11T18:22:53.388Z,9.3
2023-12-11T18:28:39.854Z,9.4
2023-12-11T18:33:40.007Z,9.5
2023-12-11T18:38:39.903Z,9.5
2023-12-11T18:43:46.597Z,9.6
2023-12-11T18:48:47.169Z,9.7
2023-12-11T18:54:39.826Z,9.4
2023-12-11T18:59:39.850Z,9.5
2023-12-11T19:04:46.762Z,9.6
2023-12-11T19:09:46.712Z,9.6
2023-12-11T19:14:46.762Z,9.7
2023-12-11T19:20:39.826Z,9.7
2023-12-11T19:25:39.848Z,9.7
2023-12-11T19:30:47.462Z,9.7
2023-12-11T19:36:46.717Z,9.8
2023-12-11T19:41:47.444Z,9.8
2023-12-11T19:47:39.915Z,9.7
2023-12-11T19:52:39.911Z,9.6
2023-12-11T19:57:47.331Z,9.6
2023-12-11T20:03:39.845Z,9.6
2023-12-11T20:08:39.848Z,9.5
2023-12-11T20:13:47.394Z,9.5
2023-12-11T20:18:54.481Z,9.4
2023-12-11T20:24:40.223Z,9.3
2023-12-11T20:29:39.867Z,9.3
2023-12-11T20:34:46.692Z,9.3
2023-12-11T20:40:39.824Z,9.4
2023-12-11T20:45:39.872Z,9.4
2023-12-11T20:50:39.864Z,9.4
2023-12-11T20:56:39.851Z,9.5
2023-12-11T21:01:46.664Z,9.5
2023-12-11T21:06:47.437Z,9.4
2023-12-11T21:12:39.849Z,9.5
2023-12-11T21:17:39.913Z,9.5
2023-12-11T21:22:47.345Z,9.4
2023-12-11T21:28:39.820Z,9.4
2023-12-11T21:33:39.857Z,9.4
2023-12-11T21:38:39.860Z,9.3
2023-12-11T21:43:46.712Z,9.2
2023-12-11T21:48:47.199Z,9
2023-12-11T21:54:39.827Z,8.9
2023-12-11T21:59:45.250Z,8.7
2023-12-11T22:04:47.199Z,8.8
2023-12-11T22:10:39.835Z,8.8
2023-12-11T22:15:39.873Z,8.8
2023-12-11T22:20:39.843Z,8.7
2023-12-11T22:26:39.832Z,8.8
2023-12-11T22:31:39.870Z,8.9
2023-12-11T22:36:46.671Z,9
2023-12-11T22:41:46.687Z,9
2023-12-11T22:46:47.046Z,9
2023-12-11T22:51:47.282Z,9.1
2023-12-11T22:57:39.836Z,9
2023-12-11T23:02:46.659Z,9
2023-12-11T23:07:47.402Z,9.1
2023-12-11T23:13:39.854Z,9.1
2023-12-11T23:18:47.462Z,9.1
2023-12-11T23:24:39.857Z,9.1
2023-12-11T23:29:42.059Z,9.2
2023-12-11T23:34:46.851Z,9
2023-12-11T23:40:39.931Z,9.1
2023-12-11T23:45:39.860Z,9.1
2023-12-11T23:50:47.493Z,9.2
2023-12-11T23:55:48.357Z,9.2
